sensor_id;sensor_type;location;lat;lon;timestamp;temperature;humidity
298;DHT22;133;49.626;9.680;2023-10-08T00:00:44;17.60;77.30
298;DHT22;133;49.626;9.680;2023-10-08T00:03:15;17.50;77.40
298;DHT22;133;49.626;9.680;2023-10-08T00:05:42;17.50;77.40
298;DHT22;133;49.626;9.680;2023-10-08T00:08:08;17.60;77.40
298;DHT22;133;49.626;9.680;2023-10-08T00:10:37;17.50;77.40
298;DHT22;133;49.626;9.680;2023-10-08T00:13:10;17.60;77.30
298;DHT22;133;49.626;9.680;2023-10-08T00:15:36;17.60;77.20
298;DHT22;133;49.626;9.680;2023-10-08T00:18:03;17.50;77.30
298;DHT22;133;49.626;9.680;2023-10-08T00:20:36;17.50;77.30
298;DHT22;133;49.626;9.680;2023-10-08T00:23:12;17.50;77.40
298;DHT22;133;49.626;9.680;2023-10-08T00:25:38;17.40;77.50
298;DHT22;133;49.626;9.680;2023-10-08T00:28:08;17.50;77.50
298;DHT22;133;49.626;9.680;2023-10-08T00:30:38;17.40;77.50
298;DHT22;133;49.626;9.680;2023-10-08T00:33:05;17.30;77.60
298;DHT22;133;49.626;9.680;2023-10-08T00:35:30;17.40;77.70
298;DHT22;133;49.626;9.680;2023-10-08T00:37:56;17.40;77.70
298;DHT22;133;49.626;9.680;2023-10-08T00:40:35;17.30;77.90
298;DHT22;133;49.626;9.680;2023-10-08T00:43:02;17.30;77.90
298;DHT22;133;49.626;9.680;2023-10-08T00:45:39;17.30;78.10
298;DHT22;133;49.626;9.680;2023-10-08T00:48:11;17.30;78.30
298;DHT22;133;49.626;9.680;2023-10-08T00:50:42;17.20;78.50
298;DHT22;133;49.626;9.680;2023-10-08T00:53:10;17.20;78.60
298;DHT22;133;49.626;9.680;2023-10-08T00:55:47;17.20;78.60
298;DHT22;133;49.626;9.680;2023-10-08T00:58:19;17.20;78.60
298;DHT22;133;49.626;9.680;2023-10-08T01:00:51;17.20;78.70
298;DHT22;133;49.626;9.680;2023-10-08T01:03:22;17.20;78.80
298;DHT22;133;49.626;9.680;2023-10-08T01:05:50;17.20;78.80
298;DHT22;133;49.626;9.680;2023-10-08T01:08:16;17.20;79.00
298;DHT22;133;49.626;9.680;2023-10-08T01:10:48;17.20;79.00
298;DHT22;133;49.626;9.680;2023-10-08T01:13:22;17.20;79.10
298;DHT22;133;49.626;9.680;2023-10-08T01:15:48;17.30;78.90
298;DHT22;133;49.626;9.680;2023-10-08T01:18:16;17.30;78.90
298;DHT22;133;49.626;9.680;2023-10-08T01:20:44;17.30;78.90
298;DHT22;133;49.626;9.680;2023-10-08T01:23:12;17.20;79.20
298;DHT22;133;49.626;9.680;2023-10-08T01:25:49;17.20;79.20
298;DHT22;133;49.626;9.680;2023-10-08T01:28:18;17.20;79.40
298;DHT22;133;49.626;9.680;2023-10-08T01:30:57;17.10;79.50
298;DHT22;133;49.626;9.680;2023-10-08T01:33:26;17.10;79.60
298;DHT22;133;49.626;9.680;2023-10-08T01:35:57;17.10;79.80
298;DHT22;133;49.626;9.680;2023-10-08T01:38:29;17.20;79.70
298;DHT22;133;49.626;9.680;2023-10-08T01:40:54;17.10;79.80
298;DHT22;133;49.626;9.680;2023-10-08T01:43:22;17.10;79.80
298;DHT22;133;49.626;9.680;2023-10-08T01:45:48;17.10;79.80
298;DHT22;133;49.626;9.680;2023-10-08T01:48:14;17.20;79.80
298;DHT22;133;49.626;9.680;2023-10-08T01:50:59;17.20;79.90
298;DHT22;133;49.626;9.680;2023-10-08T01:53:27;17.10;80.10
298;DHT22;133;49.626;9.680;2023-10-08T01:55:53;17.10;80.10
298;DHT22;133;49.626;9.680;2023-10-08T01:58:20;17.20;80.10
298;DHT22;133;49.626;9.680;2023-10-08T02:00:46;17.20;80.10
298;DHT22;133;49.626;9.680;2023-10-08T02:03:13;17.20;80.10
298;DHT22;133;49.626;9.680;2023-10-08T02:05:44;17.30;80.00
298;DHT22;133;49.626;9.680;2023-10-08T02:08:11;17.30;79.90
298;DHT22;133;49.626;9.680;2023-10-08T02:10:39;17.20;80.10
298;DHT22;133;49.626;9.680;2023-10-08T02:13:06;17.20;80.40
298;DHT22;133;49.626;9.680;2023-10-08T02:15:34;17.20;80.30
298;DHT22;133;49.626;9.680;2023-10-08T02:18:00;17.30;80.20
298;DHT22;133;49.626;9.680;2023-10-08T02:20:25;17.20;80.30
298;DHT22;133;49.626;9.680;2023-10-08T02:22:53;17.40;79.90
298;DHT22;133;49.626;9.680;2023-10-08T02:25:19;17.30;79.90
298;DHT22;133;49.626;9.680;2023-10-08T02:27:44;17.30;79.90
298;DHT22;133;49.626;9.680;2023-10-08T02:30:10;17.30;80.20
298;DHT22;133;49.626;9.680;2023-10-08T02:32:38;17.30;80.20
298;DHT22;133;49.626;9.680;2023-10-08T02:35:08;17.30;80.50
298;DHT22;133;49.626;9.680;2023-10-08T02:37:37;17.30;80.20
298;DHT22;133;49.626;9.680;2023-10-08T02:40:09;17.30;80.40
298;DHT22;133;49.626;9.680;2023-10-08T02:42:56;17.20;80.60
298;DHT22;133;49.626;9.680;2023-10-08T02:45:26;17.20;80.80
298;DHT22;133;49.626;9.680;2023-10-08T02:47:52;17.10;81.00
298;DHT22;133;49.626;9.680;2023-10-08T02:50:19;17.00;81.30
298;DHT22;133;49.626;9.680;2023-10-08T02:52:44;17.00;81.50
298;DHT22;133;49.626;9.680;2023-10-08T02:55:11;17.10;81.40
298;DHT22;133;49.626;9.680;2023-10-08T02:58:00;17.00;81.50
298;DHT22;133;49.626;9.680;2023-10-08T03:00:28;17.00;81.50
298;DHT22;133;49.626;9.680;2023-10-08T03:02:58;17.10;81.40
298;DHT22;133;49.626;9.680;2023-10-08T03:05:27;17.00;81.50
298;DHT22;133;49.626;9.680;2023-10-08T03:07:56;17.00;81.60
298;DHT22;133;49.626;9.680;2023-10-08T03:10:23;17.00;81.70
298;DHT22;133;49.626;9.680;2023-10-08T03:12:57;17.10;81.50
298;DHT22;133;49.626;9.680;2023-10-08T03:15:30;17.20;81.30
298;DHT22;133;49.626;9.680;2023-10-08T03:17:59;17.10;81.60
298;DHT22;133;49.626;9.680;2023-10-08T03:20:35;17.10;81.50
298;DHT22;133;49.626;9.680;2023-10-08T03:23:04;17.00;81.70
298;DHT22;133;49.626;9.680;2023-10-08T03:28:21;16.90;82.00
298;DHT22;133;49.626;9.680;2023-10-08T03:30:56;16.90;81.90
298;DHT22;133;49.626;9.680;2023-10-08T03:33:36;16.90;82.10
298;DHT22;133;49.626;9.680;2023-10-08T03:36:04;16.90;82.10
298;DHT22;133;49.626;9.680;2023-10-08T03:38:59;16.90;82.30
298;DHT22;133;49.626;9.680;2023-10-08T03:41:35;16.90;82.00
298;DHT22;133;49.626;9.680;2023-10-08T03:44:05;16.90;82.20
298;DHT22;133;49.626;9.680;2023-10-08T03:46:33;17.00;81.90
298;DHT22;133;49.626;9.680;2023-10-08T03:49:05;17.00;82.10
298;DHT22;133;49.626;9.680;2023-10-08T03:51:37;17.00;82.20
298;DHT22;133;49.626;9.680;2023-10-08T03:54:08;16.90;82.40
298;DHT22;133;49.626;9.680;2023-10-08T03:56:40;16.90;82.70
298;DHT22;133;49.626;9.680;2023-10-08T03:59:14;16.90;82.50
298;DHT22;133;49.626;9.680;2023-10-08T04:01:45;16.90;82.60
298;DHT22;133;49.626;9.680;2023-10-08T04:04:11;16.90;82.40
298;DHT22;133;49.626;9.680;2023-10-08T04:06:43;16.80;82.50
298;DHT22;133;49.626;9.680;2023-10-08T04:09:15;16.80;82.80
298;DHT22;133;49.626;9.680;2023-10-08T04:11:51;16.70;83.00
298;DHT22;133;49.626;9.680;2023-10-08T04:14:24;16.60;83.30
298;DHT22;133;49.626;9.680;2023-10-08T04:16:51;16.60;83.30
298;DHT22;133;49.626;9.680;2023-10-08T04:19:20;16.60;83.40
298;DHT22;133;49.626;9.680;2023-10-08T04:21:50;16.70;83.10
298;DHT22;133;49.626;9.680;2023-10-08T04:24:21;16.60;83.10
298;DHT22;133;49.626;9.680;2023-10-08T04:26:53;16.60;83.20
298;DHT22;133;49.626;9.680;2023-10-08T04:29:21;16.70;83.30
298;DHT22;133;49.626;9.680;2023-10-08T04:31:48;16.60;83.60
298;DHT22;133;49.626;9.680;2023-10-08T04:34:19;16.60;83.60
298;DHT22;133;49.626;9.680;2023-10-08T04:36:48;16.60;83.60
298;DHT22;133;49.626;9.680;2023-10-08T04:39:20;16.50;83.70
298;DHT22;133;49.626;9.680;2023-10-08T04:41:48;16.50;83.80
298;DHT22;133;49.626;9.680;2023-10-08T04:44:19;16.50;83.80
298;DHT22;133;49.626;9.680;2023-10-08T04:46:47;16.50;83.90
298;DHT22;133;49.626;9.680;2023-10-08T04:49:17;16.40;84.10
298;DHT22;133;49.626;9.680;2023-10-08T04:52:01;16.40;84.10
298;DHT22;133;49.626;9.680;2023-10-08T04:54:34;16.30;84.50
298;DHT22;133;49.626;9.680;2023-10-08T04:57:06;16.20;84.80
298;DHT22;133;49.626;9.680;2023-10-08T04:59:32;16.30;84.60
298;DHT22;133;49.626;9.680;2023-10-08T05:02:03;16.30;84.60
298;DHT22;133;49.626;9.680;2023-10-08T05:04:49;16.40;84.60
298;DHT22;133;49.626;9.680;2023-10-08T05:07:19;16.40;84.70
298;DHT22;133;49.626;9.680;2023-10-08T05:10:06;16.20;84.80
298;DHT22;133;49.626;9.680;2023-10-08T05:12:33;16.30;84.90
298;DHT22;133;49.626;9.680;2023-10-08T05:14:59;16.40;84.60
298;DHT22;133;49.626;9.680;2023-10-08T05:17:45;16.40;84.40
298;DHT22;133;49.626;9.680;2023-10-08T05:20:18;16.50;84.20
298;DHT22;133;49.626;9.680;2023-10-08T05:23:09;16.40;84.20
298;DHT22;133;49.626;9.680;2023-10-08T05:25:54;16.50;84.40
298;DHT22;133;49.626;9.680;2023-10-08T05:28:35;16.50;84.30
298;DHT22;133;49.626;9.680;2023-10-08T05:31:08;16.50;84.40
298;DHT22;133;49.626;9.680;2023-10-08T05:33:57;16.40;84.40
298;DHT22;133;49.626;9.680;2023-10-08T05:36:41;16.40;84.50
298;DHT22;133;49.626;9.680;2023-10-08T05:39:25;16.40;84.60
298;DHT22;133;49.626;9.680;2023-10-08T05:41:53;16.30;84.80
298;DHT22;133;49.626;9.680;2023-10-08T05:44:31;16.30;84.90
298;DHT22;133;49.626;9.680;2023-10-08T05:47:14;16.30;84.90
298;DHT22;133;49.626;9.680;2023-10-08T05:49:58;16.30;84.90
298;DHT22;133;49.626;9.680;2023-10-08T05:52:43;16.40;84.80
298;DHT22;133;49.626;9.680;2023-10-08T05:55:31;16.30;84.90
298;DHT22;133;49.626;9.680;2023-10-08T05:58:06;16.40;84.70
298;DHT22;133;49.626;9.680;2023-10-08T06:00:46;16.50;84.50
298;DHT22;133;49.626;9.680;2023-10-08T06:03:26;16.50;84.70
298;DHT22;133;49.626;9.680;2023-10-08T06:06:02;16.50;84.60
298;DHT22;133;49.626;9.680;2023-10-08T06:08:49;16.50;84.50
298;DHT22;133;49.626;9.680;2023-10-08T06:11:33;16.60;84.50
298;DHT22;133;49.626;9.680;2023-10-08T06:14:07;16.60;84.50
298;DHT22;133;49.626;9.680;2023-10-08T06:16:42;16.70;84.50
298;DHT22;133;49.626;9.680;2023-10-08T06:19:13;16.60;84.50
298;DHT22;133;49.626;9.680;2023-10-08T06:21:41;16.60;84.40
298;DHT22;133;49.626;9.680;2023-10-08T06:24:10;16.60;84.10
298;DHT22;133;49.626;9.680;2023-10-08T06:26:39;16.60;84.30
298;DHT22;133;49.626;9.680;2023-10-08T06:29:09;16.60;84.30
298;DHT22;133;49.626;9.680;2023-10-08T06:31:45;16.60;84.40
298;DHT22;133;49.626;9.680;2023-10-08T06:34:16;16.60;84.40
298;DHT22;133;49.626;9.680;2023-10-08T06:36:42;16.60;84.30
298;DHT22;133;49.626;9.680;2023-10-08T06:39:08;16.60;84.20
298;DHT22;133;49.626;9.680;2023-10-08T06:41:43;16.50;84.30
298;DHT22;133;49.626;9.680;2023-10-08T06:44:09;16.50;84.30
298;DHT22;133;49.626;9.680;2023-10-08T06:46:39;16.60;84.30
298;DHT22;133;49.626;9.680;2023-10-08T06:49:07;16.60;84.20
298;DHT22;133;49.626;9.680;2023-10-08T06:51:38;16.60;84.20
298;DHT22;133;49.626;9.680;2023-10-08T06:54:04;16.50;84.30
298;DHT22;133;49.626;9.680;2023-10-08T06:56:29;16.50;84.40
298;DHT22;133;49.626;9.680;2023-10-08T06:58:57;16.50;84.30
298;DHT22;133;49.626;9.680;2023-10-08T07:01:24;16.50;84.60
298;DHT22;133;49.626;9.680;2023-10-08T07:03:54;16.50;84.90
298;DHT22;133;49.626;9.680;2023-10-08T07:06:29;16.60;84.70
298;DHT22;133;49.626;9.680;2023-10-08T07:08:59;16.80;84.50
298;DHT22;133;49.626;9.680;2023-10-08T07:11:26;16.90;83.90
298;DHT22;133;49.626;9.680;2023-10-08T07:13:52;16.90;83.90
298;DHT22;133;49.626;9.680;2023-10-08T07:16:19;17.00;83.70
298;DHT22;133;49.626;9.680;2023-10-08T07:18:47;17.00;83.80
298;DHT22;133;49.626;9.680;2023-10-08T07:21:21;17.00;83.60
298;DHT22;133;49.626;9.680;2023-10-08T07:23:57;16.90;83.80
298;DHT22;133;49.626;9.680;2023-10-08T07:26:24;16.80;84.30
298;DHT22;133;49.626;9.680;2023-10-08T07:28:51;16.90;83.90
298;DHT22;133;49.626;9.680;2023-10-08T07:31:22;16.80;84.30
298;DHT22;133;49.626;9.680;2023-10-08T07:33:55;16.80;84.30
298;DHT22;133;49.626;9.680;2023-10-08T07:36:41;16.80;84.40
298;DHT22;133;49.626;9.680;2023-10-08T07:39:07;16.90;84.00
298;DHT22;133;49.626;9.680;2023-10-08T07:41:40;16.90;83.90
298;DHT22;133;49.626;9.680;2023-10-08T07:44:06;16.90;84.00
298;DHT22;133;49.626;9.680;2023-10-08T07:46:32;17.00;84.00
298;DHT22;133;49.626;9.680;2023-10-08T07:48:58;17.20;83.70
298;DHT22;133;49.626;9.680;2023-10-08T07:51:24;17.10;83.50
298;DHT22;133;49.626;9.680;2023-10-08T07:53:51;17.20;83.40
298;DHT22;133;49.626;9.680;2023-10-08T07:56:24;17.30;83.30
298;DHT22;133;49.626;9.680;2023-10-08T07:58:53;17.20;83.10
298;DHT22;133;49.626;9.680;2023-10-08T08:01:23;17.30;83.10
298;DHT22;133;49.626;9.680;2023-10-08T08:03:50;17.30;82.60
298;DHT22;133;49.626;9.680;2023-10-08T08:06:16;17.30;82.80
298;DHT22;133;49.626;9.680;2023-10-08T08:08:42;17.30;83.00
298;DHT22;133;49.626;9.680;2023-10-08T08:11:09;17.30;83.10
298;DHT22;133;49.626;9.680;2023-10-08T08:13:41;17.40;83.10
298;DHT22;133;49.626;9.680;2023-10-08T08:16:08;17.60;82.20
298;DHT22;133;49.626;9.680;2023-10-08T08:18:47;17.50;82.50
298;DHT22;133;49.626;9.680;2023-10-08T08:21:14;17.50;82.80
298;DHT22;133;49.626;9.680;2023-10-08T08:23:46;17.50;82.60
298;DHT22;133;49.626;9.680;2023-10-08T08:26:16;17.60;82.20
298;DHT22;133;49.626;9.680;2023-10-08T08:29:05;17.80;82.10
298;DHT22;133;49.626;9.680;2023-10-08T08:31:34;17.90;81.80
298;DHT22;133;49.626;9.680;2023-10-08T08:34:01;18.00;81.50
298;DHT22;133;49.626;9.680;2023-10-08T08:36:39;18.00;81.20
298;DHT22;133;49.626;9.680;2023-10-08T08:39:11;18.10;81.10
298;DHT22;133;49.626;9.680;2023-10-08T08:41:43;18.10;81.00
298;DHT22;133;49.626;9.680;2023-10-08T08:44:09;18.20;80.80
298;DHT22;133;49.626;9.680;2023-10-08T08:46:35;18.20;80.80
298;DHT22;133;49.626;9.680;2023-10-08T08:49:04;18.20;80.80
298;DHT22;133;49.626;9.680;2023-10-08T08:51:30;18.10;80.50
298;DHT22;133;49.626;9.680;2023-10-08T08:53:56;18.20;80.80
298;DHT22;133;49.626;9.680;2023-10-08T08:56:22;18.10;81.20
298;DHT22;133;49.626;9.680;2023-10-08T08:58:49;18.20;81.00
298;DHT22;133;49.626;9.680;2023-10-08T09:01:16;18.40;80.70
298;DHT22;133;49.626;9.680;2023-10-08T09:03:43;18.40;80.50
298;DHT22;133;49.626;9.680;2023-10-08T09:06:11;18.50;80.20
298;DHT22;133;49.626;9.680;2023-10-08T09:08:37;18.50;80.20
298;DHT22;133;49.626;9.680;2023-10-08T09:11:06;18.50;80.30
298;DHT22;133;49.626;9.680;2023-10-08T09:13:34;18.50;80.40
298;DHT22;133;49.626;9.680;2023-10-08T09:16:18;18.60;80.20
298;DHT22;133;49.626;9.680;2023-10-08T09:18:44;18.60;79.90
298;DHT22;133;49.626;9.680;2023-10-08T09:21:14;18.60;80.10
298;DHT22;133;49.626;9.680;2023-10-08T09:23:44;18.60;79.90
298;DHT22;133;49.626;9.680;2023-10-08T09:26:13;18.50;80.20
298;DHT22;133;49.626;9.680;2023-10-08T09:28:45;18.50;80.10
298;DHT22;133;49.626;9.680;2023-10-08T09:31:15;18.50;80.30
298;DHT22;133;49.626;9.680;2023-10-08T09:33:43;18.50;80.30
298;DHT22;133;49.626;9.680;2023-10-08T09:36:18;18.40;80.50
298;DHT22;133;49.626;9.680;2023-10-08T09:38:46;18.50;80.70
298;DHT22;133;49.626;9.680;2023-10-08T09:41:14;18.60;80.70
298;DHT22;133;49.626;9.680;2023-10-08T09:43:41;18.60;80.40
298;DHT22;133;49.626;9.680;2023-10-08T09:46:18;18.60;80.30
298;DHT22;133;49.626;9.680;2023-10-08T09:48:50;18.60;80.40
298;DHT22;133;49.626;9.680;2023-10-08T09:51:19;18.70;80.40
298;DHT22;133;49.626;9.680;2023-10-08T09:54:10;18.50;80.70
298;DHT22;133;49.626;9.680;2023-10-08T09:56:39;18.60;80.70
298;DHT22;133;49.626;9.680;2023-10-08T09:59:06;18.60;80.70
298;DHT22;133;49.626;9.680;2023-10-08T10:01:35;18.60;80.60
298;DHT22;133;49.626;9.680;2023-10-08T10:04:06;18.70;80.60
298;DHT22;133;49.626;9.680;2023-10-08T10:06:34;18.90;80.40
298;DHT22;133;49.626;9.680;2023-10-08T10:09:01;18.90;79.90
298;DHT22;133;49.626;9.680;2023-10-08T10:11:31;19.10;80.30
298;DHT22;133;49.626;9.680;2023-10-08T10:14:02;19.20;79.40
298;DHT22;133;49.626;9.680;2023-10-08T10:16:28;19.30;79.30
298;DHT22;133;49.626;9.680;2023-10-08T10:18:59;19.40;78.70
298;DHT22;133;49.626;9.680;2023-10-08T10:21:30;19.60;78.20
298;DHT22;133;49.626;9.680;2023-10-08T10:23:56;19.50;78.70
298;DHT22;133;49.626;9.680;2023-10-08T10:26:29;19.60;78.50
298;DHT22;133;49.626;9.680;2023-10-08T10:31:44;19.60;78.50
298;DHT22;133;49.626;9.680;2023-10-08T10:34:16;19.70;78.50
298;DHT22;133;49.626;9.680;2023-10-08T10:36:44;19.70;78.40
298;DHT22;133;49.626;9.680;2023-10-08T10:39:14;19.60;78.70
298;DHT22;133;49.626;9.680;2023-10-08T10:41:45;19.50;79.20
298;DHT22;133;49.626;9.680;2023-10-08T10:44:12;19.50;78.90
298;DHT22;133;49.626;9.680;2023-10-08T10:46:40;19.70;78.70
298;DHT22;133;49.626;9.680;2023-10-08T10:49:07;19.90;78.60
298;DHT22;133;49.626;9.680;2023-10-08T10:52:03;20.10;77.70
298;DHT22;133;49.626;9.680;2023-10-08T10:54:31;20.20;77.70
298;DHT22;133;49.626;9.680;2023-10-08T10:57:02;20.40;77.00
298;DHT22;133;49.626;9.680;2023-10-08T10:59:34;20.50;76.60
298;DHT22;133;49.626;9.680;2023-10-08T11:02:06;20.60;76.40
298;DHT22;133;49.626;9.680;2023-10-08T11:04:47;20.70;76.40
298;DHT22;133;49.626;9.680;2023-10-08T11:07:18;20.80;76.10
298;DHT22;133;49.626;9.680;2023-10-08T11:09:46;21.00;75.30
298;DHT22;133;49.626;9.680;2023-10-08T11:12:13;21.00;75.40
298;DHT22;133;49.626;9.680;2023-10-08T11:14:46;21.00;75.80
298;DHT22;133;49.626;9.680;2023-10-08T11:17:23;21.00;75.50
298;DHT22;133;49.626;9.680;2023-10-08T11:19:49;21.10;75.80
298;DHT22;133;49.626;9.680;2023-10-08T11:22:16;21.30;75.40
298;DHT22;133;49.626;9.680;2023-10-08T11:24:45;21.30;74.90
298;DHT22;133;49.626;9.680;2023-10-08T11:27:17;21.50;74.80
298;DHT22;133;49.626;9.680;2023-10-08T11:29:55;21.60;74.20
298;DHT22;133;49.626;9.680;2023-10-08T11:32:25;21.70;73.70
298;DHT22;133;49.626;9.680;2023-10-08T11:35:14;21.70;73.60
298;DHT22;133;49.626;9.680;2023-10-08T11:37:45;21.70;73.50
298;DHT22;133;49.626;9.680;2023-10-08T11:40:25;21.70;73.10
298;DHT22;133;49.626;9.680;2023-10-08T11:42:57;21.60;73.00
298;DHT22;133;49.626;9.680;2023-10-08T11:45:28;21.50;73.40
298;DHT22;133;49.626;9.680;2023-10-08T11:48:06;21.50;73.40
298;DHT22;133;49.626;9.680;2023-10-08T11:50:38;21.60;73.40
298;DHT22;133;49.626;9.680;2023-10-08T11:53:05;21.60;73.30
298;DHT22;133;49.626;9.680;2023-10-08T11:55:35;21.60;73.40
298;DHT22;133;49.626;9.680;2023-10-08T11:58:06;21.80;73.50
298;DHT22;133;49.626;9.680;2023-10-08T12:00:43;22.10;73.20
298;DHT22;133;49.626;9.680;2023-10-08T12:03:17;22.50;72.20
298;DHT22;133;49.626;9.680;2023-10-08T12:05:44;22.70;71.20
298;DHT22;133;49.626;9.680;2023-10-08T12:08:17;23.00;70.80
298;DHT22;133;49.626;9.680;2023-10-08T12:10:44;23.20;69.80
298;DHT22;133;49.626;9.680;2023-10-08T12:13:11;23.10;70.10
298;DHT22;133;49.626;9.680;2023-10-08T12:15:37;23.20;69.80
298;DHT22;133;49.626;9.680;2023-10-08T12:18:07;23.20;69.80
298;DHT22;133;49.626;9.680;2023-10-08T12:20:41;23.20;70.10
298;DHT22;133;49.626;9.680;2023-10-08T12:23:11;23.00;70.00
298;DHT22;133;49.626;9.680;2023-10-08T12:25:44;22.90;70.40
298;DHT22;133;49.626;9.680;2023-10-08T12:28:19;22.90;70.50
298;DHT22;133;49.626;9.680;2023-10-08T12:30:45;23.00;70.10
298;DHT22;133;49.626;9.680;2023-10-08T12:33:11;23.10;70.00
298;DHT22;133;49.626;9.680;2023-10-08T12:35:42;23.00;70.30
298;DHT22;133;49.626;9.680;2023-10-08T12:38:09;23.00;70.10
298;DHT22;133;49.626;9.680;2023-10-08T12:40:36;23.00;70.70
298;DHT22;133;49.626;9.680;2023-10-08T12:43:13;23.10;70.10
298;DHT22;133;49.626;9.680;2023-10-08T12:45:39;23.10;70.30
298;DHT22;133;49.626;9.680;2023-10-08T12:48:05;23.30;70.30
298;DHT22;133;49.626;9.680;2023-10-08T12:50:31;23.30;70.10
298;DHT22;133;49.626;9.680;2023-10-08T12:53:11;23.40;70.00
298;DHT22;133;49.626;9.680;2023-10-08T12:55:46;23.30;69.60
298;DHT22;133;49.626;9.680;2023-10-08T12:58:12;23.40;69.80
298;DHT22;133;49.626;9.680;2023-10-08T13:00:40;23.40;69.60
298;DHT22;133;49.626;9.680;2023-10-08T13:03:14;23.80;69.10
298;DHT22;133;49.626;9.680;2023-10-08T13:05:49;24.10;68.40
298;DHT22;133;49.626;9.680;2023-10-08T13:08:18;24.30;67.80
298;DHT22;133;49.626;9.680;2023-10-08T13:10:45;24.40;67.60
298;DHT22;133;49.626;9.680;2023-10-08T13:13:11;24.90;66.30
298;DHT22;133;49.626;9.680;2023-10-08T13:15:38;25.00;66.60
298;DHT22;133;49.626;9.680;2023-10-08T13:18:04;25.20;65.20
298;DHT22;133;49.626;9.680;2023-10-08T13:20:30;25.20;65.70
298;DHT22;133;49.626;9.680;2023-10-08T13:23:00;25.20;65.50
298;DHT22;133;49.626;9.680;2023-10-08T13:25:26;25.10;66.20
298;DHT22;133;49.626;9.680;2023-10-08T13:27:52;25.30;66.10
298;DHT22;133;49.626;9.680;2023-10-08T13:30:19;25.40;65.90
298;DHT22;133;49.626;9.680;2023-10-08T13:32:46;25.70;65.60
298;DHT22;133;49.626;9.680;2023-10-08T13:35:11;25.60;64.90
298;DHT22;133;49.626;9.680;2023-10-08T13:37:37;25.60;64.50
298;DHT22;133;49.626;9.680;2023-10-08T13:40:03;25.70;64.80
298;DHT22;133;49.626;9.680;2023-10-08T13:42:29;25.60;64.20
298;DHT22;133;49.626;9.680;2023-10-08T13:44:55;25.60;64.30
298;DHT22;133;49.626;9.680;2023-10-08T13:47:25;25.40;64.30
298;DHT22;133;49.626;9.680;2023-10-08T13:49:54;25.70;63.90
298;DHT22;133;49.626;9.680;2023-10-08T13:52:23;25.90;63.30
298;DHT22;133;49.626;9.680;2023-10-08T13:54:54;26.10;63.10
298;DHT22;133;49.626;9.680;2023-10-08T13:57:20;26.20;63.30
298;DHT22;133;49.626;9.680;2023-10-08T13:59:47;25.80;63.70
298;DHT22;133;49.626;9.680;2023-10-08T14:02:16;26.00;64.00
298;DHT22;133;49.626;9.680;2023-10-08T14:04:44;26.00;63.70
298;DHT22;133;49.626;9.680;2023-10-08T14:07:11;25.50;64.70
298;DHT22;133;49.626;9.680;2023-10-08T14:09:43;25.40;64.80
298;DHT22;133;49.626;9.680;2023-10-08T14:12:11;25.10;66.00
298;DHT22;133;49.626;9.680;2023-10-08T14:14:38;25.10;66.30
298;DHT22;133;49.626;9.680;2023-10-08T14:17:09;25.20;65.60
298;DHT22;133;49.626;9.680;2023-10-08T14:19:40;24.80;66.00
298;DHT22;133;49.626;9.680;2023-10-08T14:22:12;24.90;65.80
298;DHT22;133;49.626;9.680;2023-10-08T14:24:42;24.90;66.30
298;DHT22;133;49.626;9.680;2023-10-08T14:27:10;25.10;65.90
298;DHT22;133;49.626;9.680;2023-10-08T14:29:39;25.10;65.80
298;DHT22;133;49.626;9.680;2023-10-08T14:32:15;25.00;65.70
298;DHT22;133;49.626;9.680;2023-10-08T14:34:41;25.00;65.90
298;DHT22;133;49.626;9.680;2023-10-08T14:37:12;25.20;64.90
298;DHT22;133;49.626;9.680;2023-10-08T14:39:57;25.00;65.80
298;DHT22;133;49.626;9.680;2023-10-08T14:42:41;25.00;65.60
298;DHT22;133;49.626;9.680;2023-10-08T14:45:26;25.00;65.30
298;DHT22;133;49.626;9.680;2023-10-08T14:47:55;24.90;65.60
298;DHT22;133;49.626;9.680;2023-10-08T14:50:22;24.80;65.70
298;DHT22;133;49.626;9.680;2023-10-08T14:52:48;24.30;67.00
298;DHT22;133;49.626;9.680;2023-10-08T14:55:15;24.00;67.90
298;DHT22;133;49.626;9.680;2023-10-08T14:57:41;23.90;68.40
298;DHT22;133;49.626;9.680;2023-10-08T15:00:08;24.00;68.00
298;DHT22;133;49.626;9.680;2023-10-08T15:02:35;23.90;68.60
298;DHT22;133;49.626;9.680;2023-10-08T15:05:04;23.70;68.90
298;DHT22;133;49.626;9.680;2023-10-08T15:07:31;23.50;69.30
298;DHT22;133;49.626;9.680;2023-10-08T15:09:58;23.30;70.20
298;DHT22;133;49.626;9.680;2023-10-08T15:12:26;23.00;71.00
298;DHT22;133;49.626;9.680;2023-10-08T15:14:52;22.90;71.30
298;DHT22;133;49.626;9.680;2023-10-08T15:17:18;22.80;71.80
298;DHT22;133;49.626;9.680;2023-10-08T15:19:43;23.00;71.50
298;DHT22;133;49.626;9.680;2023-10-08T15:22:09;23.00;71.30
298;DHT22;133;49.626;9.680;2023-10-08T15:24:35;23.00;71.20
298;DHT22;133;49.626;9.680;2023-10-08T15:27:02;22.80;71.40
298;DHT22;133;49.626;9.680;2023-10-08T15:29:29;22.80;71.60
298;DHT22;133;49.626;9.680;2023-10-08T15:31:56;22.60;72.10
298;DHT22;133;49.626;9.680;2023-10-08T15:34:23;22.50;72.40
298;DHT22;133;49.626;9.680;2023-10-08T15:36:50;22.20;73.10
298;DHT22;133;49.626;9.680;2023-10-08T15:39:17;22.20;73.00
298;DHT22;133;49.626;9.680;2023-10-08T15:41:48;22.30;73.20
298;DHT22;133;49.626;9.680;2023-10-08T15:44:18;22.40;73.10
298;DHT22;133;49.626;9.680;2023-10-08T15:46:46;22.40;73.10
298;DHT22;133;49.626;9.680;2023-10-08T15:49:12;22.40;73.00
298;DHT22;133;49.626;9.680;2023-10-08T15:51:38;22.40;73.20
298;DHT22;133;49.626;9.680;2023-10-08T15:54:04;22.40;73.50
298;DHT22;133;49.626;9.680;2023-10-08T15:56:31;22.40;73.50
298;DHT22;133;49.626;9.680;2023-10-08T15:58:57;22.30;73.60
298;DHT22;133;49.626;9.680;2023-10-08T16:01:23;22.30;73.70
298;DHT22;133;49.626;9.680;2023-10-08T16:03:49;22.30;73.90
298;DHT22;133;49.626;9.680;2023-10-08T16:06:16;22.40;74.10
298;DHT22;133;49.626;9.680;2023-10-08T16:08:42;22.30;74.60
298;DHT22;133;49.626;9.680;2023-10-08T16:11:08;22.10;75.20
298;DHT22;133;49.626;9.680;2023-10-08T16:13:33;22.00;75.60
298;DHT22;133;49.626;9.680;2023-10-08T16:15:59;21.90;75.90
298;DHT22;133;49.626;9.680;2023-10-08T16:18:25;21.90;76.40
298;DHT22;133;49.626;9.680;2023-10-08T16:20:51;21.90;76.50
298;DHT22;133;49.626;9.680;2023-10-08T16:23:18;21.90;76.90
298;DHT22;133;49.626;9.680;2023-10-08T16:25:44;21.80;77.10
298;DHT22;133;49.626;9.680;2023-10-08T16:28:10;21.80;77.40
298;DHT22;133;49.626;9.680;2023-10-08T16:30:37;21.70;77.50
298;DHT22;133;49.626;9.680;2023-10-08T16:33:04;21.70;77.70
298;DHT22;133;49.626;9.680;2023-10-08T16:35:31;21.70;77.50
298;DHT22;133;49.626;9.680;2023-10-08T16:37:57;21.60;77.70
298;DHT22;133;49.626;9.680;2023-10-08T16:40:22;21.50;78.20
298;DHT22;133;49.626;9.680;2023-10-08T16:42:48;21.40;78.40
298;DHT22;133;49.626;9.680;2023-10-08T16:45:15;21.30;78.80
298;DHT22;133;49.626;9.680;2023-10-08T16:47:45;21.20;79.00
298;DHT22;133;49.626;9.680;2023-10-08T16:50:11;21.00;79.50
298;DHT22;133;49.626;9.680;2023-10-08T16:52:37;20.90;79.70
298;DHT22;133;49.626;9.680;2023-10-08T16:55:04;20.80;79.90
298;DHT22;133;49.626;9.680;2023-10-08T16:57:30;20.70;80.40
298;DHT22;133;49.626;9.680;2023-10-08T16:59:56;20.60;80.80